Oakbrook, Washington
Current Conditions -  °F | °C
As of 7:50 AM on Saturday 20 Dec 2014 (Local Time) from KTCM Reporting Station
Overcast Overcast  
Wind Chill: 46°   Ceiling: 3800
Heat Index: 46°   Visibility: 10mi
Dew Point: 45°   Wind: 2mph
Humidity: 93%   Direction: NA
Pressure: 29.62"   Gusts: NA
Location:  47.1809°N, 122.548°W
Report Text: KTCM 201550Z AUTO VRB02KT 10SM OVC038 08/07 A2962 RMK AO2 RAE10RAB22E32RAB35E50
Loading
Personal Weather Stations






























Interactive Weather Map New forecast layout! Learn more

10-Day Weather Forecast

Advertisements
Track Severe Weather on mobile